Time;durP1;ratioP1;P1;durP2;ratioP2;P2;SDS_P1;SDS_P2;PMS_P1;PMS_P2;Temp;Humidity;BMP_temperature;BMP_pressure;BME280_temperature;BME280_humidity;BME280_pressure;Samples;Min_cycle;Max_cycle;Signal;HPM_P1;HPM_P2
2022/08/19 00:00:17;;;;;;;0.50;0.50;;;22.10;99.90;;;;;;4447791;32;20092;-68
2022/08/19 00:02:42;;;;;;;0.47;0.47;;;22.10;99.90;;;;;;4449050;32;20111;-68
2022/08/19 00:05:10;;;;;;;0.30;0.30;;;22.20;99.90;;;;;;4448608;32;20077;-68
2022/08/19 00:07:37;;;;;;;0.62;0.60;;;22.10;99.90;;;;;;4448365;32;20510;-68
2022/08/19 00:10:04;;;;;;;0.40;0.40;;;22.00;99.90;;;;;;4446999;32;20073;-68
2022/08/19 00:12:30;;;;;;;22.58;2.67;;;21.90;99.90;;;;;;4441633;32;20065;-68
2022/08/19 00:14:55;;;;;;;0.73;0.73;;;21.80;99.90;;;;;;4445949;32;20088;-68
2022/08/19 00:17:20;;;;;;;1.05;0.93;;;21.70;99.90;;;;;;4445904;32;20060;-68
2022/08/19 00:19:46;;;;;;;0.90;0.75;;;21.70;99.90;;;;;;4444164;32;20413;-68
2022/08/19 00:22:12;;;;;;;4.12;0.60;;;21.70;99.90;;;;;;4447032;32;20089;-68
2022/08/19 00:24:38;;;;;;;0.50;0.50;;;21.70;99.90;;;;;;4445137;32;21086;-68
2022/08/19 00:27:05;;;;;;;0.30;0.30;;;21.80;99.90;;;;;;4449501;32;20080;-68
2022/08/19 00:29:30;;;;;;;1.23;0.50;;;21.80;99.90;;;;;;4441328;32;20073;-68
2022/08/19 00:31:58;;;;;;;0.60;0.60;;;21.80;99.90;;;;;;4442302;32;20089;-68
2022/08/19 00:34:24;;;;;;;0.70;0.70;;;21.90;99.90;;;;;;4444873;32;20077;-68
2022/08/19 00:36:50;;;;;;;5.82;0.73;;;21.80;99.90;;;;;;4444863;32;20499;-68
2022/08/19 00:39:16;;;;;;;1.05;1.02;;;21.70;99.90;;;;;;4446418;32;20494;-68
2022/08/19 00:41:43;;;;;;;1.85;0.60;;;21.60;99.90;;;;;;4427959;32;20072;-68
2022/08/19 00:44:13;;;;;;;0.68;0.62;;;21.70;99.90;;;;;;4448097;32;20081;-68
2022/08/19 00:46:42;;;;;;;0.25;0.25;;;21.70;99.90;;;;;;4451638;32;20061;-68
2022/08/19 00:49:29;;;;;;;1.10;0.57;;;21.60;99.90;;;;;;4441067;32;20089;-68
2022/08/19 00:52:01;;;;;;;4.57;1.75;;;21.60;99.90;;;;;;4433715;32;20463;-68
2022/08/19 00:54:27;;;;;;;0.40;0.40;;;21.60;99.90;;;;;;4441672;32;20097;-68
2022/08/19 00:56:53;;;;;;;0.73;0.60;;;21.60;99.90;;;;;;4450523;32;20097;-68
2022/08/19 00:59:19;;;;;;;0.60;0.60;;;21.70;99.90;;;;;;4445951;32;20577;-68
2022/08/19 01:01:46;;;;;;;0.70;0.70;;;21.70;99.90;;;;;;4448357;32;20090;-68
2022/08/19 01:04:12;;;;;;;0.50;0.50;;;21.60;99.90;;;;;;4444244;32;20062;-68
2022/08/19 01:06:39;;;;;;;0.73;0.70;;;21.70;99.90;;;;;;4444432;32;20098;-68
2022/08/19 01:09:05;;;;;;;0.65;0.60;;;21.60;99.90;;;;;;4445812;32;20544;-68
2022/08/19 01:11:34;;;;;;;0.68;0.68;;;21.60;99.90;;;;;;4447870;32;20477;-68
2022/08/19 01:14:00;;;;;;;17.58;2.33;;;21.60;99.90;;;;;;4446941;32;20068;-68
2022/08/19 01:16:28;;;;;;;0.47;0.47;;;21.50;99.90;;;;;;4446307;32;20084;-68
2022/08/19 01:18:56;;;;;;;0.52;0.52;;;21.50;99.90;;;;;;4444568;32;20393;-68
2022/08/19 01:21:34;;;;;;;0.40;0.40;;;21.60;99.90;;;;;;4445609;32;20587;-68
2022/08/19 01:24:00;;;;;;;1.05;0.60;;;21.50;99.90;;;;;;4447768;32;20073;-68
2022/08/19 01:26:26;;;;;;;1.52;0.90;;;21.60;99.90;;;;;;4447563;32;20077;-69
2022/08/19 01:28:55;;;;;;;2.10;0.90;;;21.70;99.90;;;;;;4446543;32;20100;-68
2022/08/19 01:31:24;;;;;;;0.40;0.40;;;21.70;99.90;;;;;;4446610;32;20151;-68
2022/08/19 01:33:52;;;;;;;1.25;0.82;;;21.70;99.90;;;;;;4444673;32;20074;-68
2022/08/19 01:36:38;;;;;;;1.27;0.88;;;21.60;99.90;;;;;;4439196;32;20057;-68
2022/08/19 01:39:06;;;;;;;0.40;0.40;;;21.60;99.90;;;;;;4440385;32;20556;-68
2022/08/19 01:41:33;;;;;;;1.25;0.85;;;21.60;99.90;;;;;;4449237;32;20065;-68
2022/08/19 01:44:00;;;;;;;2.03;1.10;;;21.60;99.90;;;;;;4447276;32;20438;-68
2022/08/19 01:46:26;;;;;;;0.65;0.50;;;21.50;99.90;;;;;;4445641;32;20077;-68
2022/08/19 01:48:51;;;;;;;1.60;0.77;;;21.60;99.90;;;;;;4444570;32;20097;-68
2022/08/19 01:51:17;;;;;;;2.40;0.73;;;21.40;99.90;;;;;;4442949;32;20065;-68
2022/08/19 01:53:46;;;;;;;0.50;0.50;;;21.40;99.90;;;;;;4445093;32;20084;-68
2022/08/19 01:56:11;;;;;;;1.98;0.60;;;21.40;99.90;;;;;;4444327;32;20140;-68
2022/08/19 01:58:46;;;;;;;0.75;0.60;;;21.50;99.90;;;;;;4446857;32;20682;-68
2022/08/19 02:01:12;;;;;;;1.08;0.60;;;21.50;99.90;;;;;;4446861;32;20056;-68
2022/08/19 02:03:37;;;;;;;0.50;0.50;;;21.30;99.90;;;;;;4449224;32;20112;-68
2022/08/19 02:06:05;;;;;;;1.42;0.95;;;21.30;99.90;;;;;;4449374;32;20097;-68
2022/08/19 02:08:31;;;;;;;0.50;0.50;;;21.30;99.90;;;;;;4450619;32;20081;-68
2022/08/19 02:10:57;;;;;;;0.50;0.50;;;21.40;99.90;;;;;;4447425;32;20123;-68
2022/08/19 02:13:24;;;;;;;0.65;0.52;;;21.30;99.90;;;;;;4448556;32;20073;-68
2022/08/19 02:15:49;;;;;;;0.50;0.50;;;21.40;99.90;;;;;;4448875;32;20544;-68
2022/08/19 02:18:15;;;;;;;3.87;0.93;;;21.40;99.90;;;;;;4448748;32;20072;-68
2022/08/19 02:20:42;;;;;;;1.80;0.80;;;21.40;99.90;;;;;;4447178;32;20090;-68
2022/08/19 02:23:10;;;;;;;2.15;0.98;;;21.40;99.90;;;;;;4447063;32;20065;-68
2022/08/19 02:25:35;;;;;;;6.65;0.90;;;21.40;99.90;;;;;;4450631;32;20433;-68
2022/08/19 02:28:01;;;;;;;0.60;0.60;;;21.40;99.90;;;;;;4447684;32;20482;-68
2022/08/19 02:30:27;;;;;;;0.70;0.70;;;21.30;99.90;;;;;;4445562;32;20080;-67
2022/08/19 02:32:53;;;;;;;0.82;0.70;;;21.40;99.90;;;;;;4448273;32;20516;-67
2022/08/19 02:35:18;;;;;;;0.65;0.65;;;21.30;99.90;;;;;;4447446;32;20120;-69
2022/08/19 02:38:44;;;;;;;0.40;0.40;;;21.30;99.90;;;;;;4448063;32;20137;-67
2022/08/19 02:40:34;;;;;;;0.98;0.55;;;21.30;99.90;;;;;;4441739;32;20528;-67
2022/08/19 02:43:00;;;;;;;0.50;0.50;;;21.30;99.90;;;;;;4446890;32;20073;-68
2022/08/19 02:45:26;;;;;;;2.12;1.10;;;21.30;99.90;;;;;;4447524;32;20111;-67
2022/08/19 02:47:51;;;;;;;2.00;0.90;;;21.20;99.90;;;;;;4448377;32;20528;-67
2022/08/19 02:50:17;;;;;;;1.60;0.68;;;21.20;99.90;;;;;;4448033;32;20473;-68
2022/08/19 02:52:42;;;;;;;0.70;0.70;;;21.20;99.90;;;;;;4447367;32;20061;-69
2022/08/19 02:55:08;;;;;;;0.50;0.50;;;21.00;99.90;;;;;;4448919;32;20069;-69
2022/08/19 02:57:34;;;;;;;1.20;0.80;;;20.90;99.90;;;;;;4449899;32;20463;-68
2022/08/19 03:00:01;;;;;;;0.68;0.47;;;21.00;99.90;;;;;;4445098;32;20087;-68
2022/08/19 03:02:27;;;;;;;0.40;0.40;;;21.00;99.90;;;;;;4447660;32;20139;-69
2022/08/19 03:04:52;;;;;;;0.50;0.50;;;21.00;99.90;;;;;;4447761;32;21358;-68
2022/08/19 03:07:18;;;;;;;1.42;0.73;;;21.00;99.90;;;;;;4443761;32;20089;-69
2022/08/19 03:09:44;;;;;;;1.20;0.75;;;21.00;99.90;;;;;;4447969;32;20073;-69
2022/08/19 03:12:10;;;;;;;1.05;0.73;;;21.00;99.90;;;;;;4449370;32;20085;-69
2022/08/19 03:14:36;;;;;;;0.50;0.50;;;21.00;99.90;;;;;;4447184;32;20081;-69
2022/08/19 03:17:04;;;;;;;0.68;0.68;;;21.10;99.90;;;;;;4448997;32;20065;-69
2022/08/19 03:19:31;;;;;;;1.45;0.88;;;21.20;99.90;;;;;;4447086;32;20064;-69
2022/08/19 03:21:56;;;;;;;0.93;0.82;;;21.10;99.90;;;;;;4446162;32;20093;-69
2022/08/19 03:24:22;;;;;;;0.43;0.43;;;21.00;99.90;;;;;;4448434;32;20157;-69
2022/08/19 03:26:51;;;;;;;2.67;0.60;;;20.90;99.90;;;;;;4451957;32;20101;-69
2022/08/19 03:29:18;;;;;;;0.85;0.80;;;20.90;99.90;;;;;;4446376;32;20077;-69
2022/08/19 03:31:44;;;;;;;2.25;0.90;;;20.90;99.90;;;;;;4447628;32;20080;-69
2022/08/19 03:34:13;;;;;;;0.40;0.40;;;20.90;99.90;;;;;;4446221;32;20097;-69
2022/08/19 03:36:38;;;;;;;5.47;1.15;;;20.90;99.90;;;;;;4445072;32;20073;-68
2022/08/19 03:39:04;;;;;;;0.50;0.50;;;20.80;99.90;;;;;;4446150;32;20088;-69
2022/08/19 03:41:36;;;;;;;3.28;0.93;;;20.80;99.90;;;;;;4444632;32;20143;-68
2022/08/19 03:44:01;;;;;;;1.60;1.05;;;20.80;99.90;;;;;;4441008;32;20627;-69
2022/08/19 03:46:30;;;;;;;1.77;1.00;;;20.90;99.90;;;;;;4449257;32;20138;-69
2022/08/19 03:48:57;;;;;;;0.82;0.60;;;21.00;99.90;;;;;;4450551;32;20480;-69
2022/08/19 03:51:25;;;;;;;0.62;0.62;;;20.90;99.90;;;;;;4450660;32;20548;-69
2022/08/19 03:53:53;;;;;;;0.62;0.50;;;20.80;99.90;;;;;;4449150;32;20068;-69
2022/08/19 03:56:19;;;;;;;1.45;0.70;;;20.80;99.90;;;;;;4450590;32;20089;-69
2022/08/19 03:58:45;;;;;;;0.65;0.65;;;20.80;99.90;;;;;;4451170;32;20076;-69
2022/08/19 04:01:14;;;;;;;0.62;0.52;;;20.80;99.90;;;;;;4448883;32;20570;-69
2022/08/19 04:03:40;;;;;;;1.27;0.62;;;20.90;99.90;;;;;;4449386;32;20590;-69
2022/08/19 04:06:14;;;;;;;0.52;0.52;;;20.90;99.90;;;;;;4445327;32;20093;-69
2022/08/19 04:08:41;;;;;;;0.95;0.70;;;21.00;99.90;;;;;;4447868;32;20092;-69
2022/08/19 04:11:09;;;;;;;0.70;0.70;;;20.90;99.90;;;;;;4448749;32;20127;-69
2022/08/19 04:13:34;;;;;;;3.85;1.35;;;20.80;99.90;;;;;;4450228;32;20604;-68
2022/08/19 04:16:00;;;;;;;0.90;0.40;;;20.80;99.90;;;;;;4449685;32;20478;-68
2022/08/19 04:18:25;;;;;;;0.43;0.43;;;20.90;99.90;;;;;;4446880;32;20539;-68
2022/08/19 04:20:51;;;;;;;1.87;1.33;;;20.90;99.90;;;;;;4447963;32;20085;-69
2022/08/19 04:23:17;;;;;;;1.42;0.88;;;21.00;99.90;;;;;;4445165;32;20060;-68
2022/08/19 04:25:44;;;;;;;0.95;0.70;;;21.10;99.90;;;;;;4449133;32;20128;-68
2022/08/19 04:28:11;;;;;;;0.60;0.60;;;21.00;99.90;;;;;;4447156;32;20505;-68
2022/08/19 04:30:39;;;;;;;0.50;0.50;;;21.00;99.90;;;;;;4448097;32;20090;-68
2022/08/19 04:33:04;;;;;;;0.60;0.60;;;21.00;99.90;;;;;;4445419;32;20093;-68
2022/08/19 04:35:36;;;;;;;1.15;0.62;;;21.00;99.90;;;;;;4444908;32;20061;-69
2022/08/19 04:38:02;;;;;;;0.68;0.62;;;20.90;99.90;;;;;;4447475;32;20129;-68
2022/08/19 04:42:42;;;;;;;2.78;1.00;;;21.00;99.90;;;;;;4448918;32;20131;-68
2022/08/19 04:43:15;;;;;;;0.50;0.50;;;21.00;99.90;;;;;;4443593;32;20108;-68
2022/08/19 04:45:43;;;;;;;1.02;0.65;;;21.00;99.90;;;;;;4447171;32;20081;-68
2022/08/19 04:48:09;;;;;;;0.65;0.65;;;20.90;99.90;;;;;;4448639;32;20064;-68
2022/08/19 04:50:35;;;;;;;0.80;0.80;;;21.00;99.90;;;;;;4448024;32;20061;-68
2022/08/19 04:53:00;;;;;;;0.60;0.52;;;21.00;99.90;;;;;;4443979;32;20108;-68
2022/08/19 04:55:26;;;;;;;2.33;0.70;;;21.10;99.90;;;;;;4443315;32;20084;-68
2022/08/19 04:57:51;;;;;;;1.02;0.93;;;21.10;99.90;;;;;;4445384;32;20100;-68
2022/08/19 05:00:17;;;;;;;5.37;1.33;;;21.10;99.90;;;;;;4446230;32;20167;-68
2022/08/19 05:02:43;;;;;;;1.33;0.70;;;21.20;99.90;;;;;;4443276;32;20421;-68
2022/08/19 05:05:08;;;;;;;0.98;0.80;;;21.20;99.90;;;;;;4444806;32;20057;-68
2022/08/19 05:07:34;;;;;;;3.28;0.98;;;21.30;99.90;;;;;;4440103;32;20089;-68
2022/08/19 05:10:00;;;;;;;1.87;0.47;;;21.30;99.90;;;;;;4446335;32;20065;-68
2022/08/19 05:12:28;;;;;;;5.85;1.45;;;21.30;99.90;;;;;;4440017;32;20081;-68
2022/08/19 05:14:54;;;;;;;0.50;0.50;;;21.40;99.90;;;;;;4446241;32;20085;-68
2022/08/19 05:17:19;;;;;;;0.75;0.70;;;21.40;99.90;;;;;;4445395;32;20111;-68
2022/08/19 05:22:32;;;;;;;0.90;0.40;;;21.60;99.90;;;;;;4438952;32;20156;-68
2022/08/19 05:24:57;;;;;;;2.10;0.75;;;21.60;99.90;;;;;;4442569;32;20142;-68
2022/08/19 05:27:23;;;;;;;0.70;0.70;;;21.60;99.90;;;;;;4444022;32;20233;-68
2022/08/19 05:29:48;;;;;;;0.47;0.47;;;21.60;99.90;;;;;;4441949;32;20540;-68
2022/08/19 05:32:14;;;;;;;1.05;0.93;;;21.70;99.90;;;;;;4442153;32;20089;-68
2022/08/19 05:34:39;;;;;;;3.12;0.47;;;21.80;99.90;;;;;;4438235;32;20450;-68
2022/08/19 05:37:07;;;;;;;0.80;0.50;;;21.80;99.90;;;;;;4442425;32;20088;-68
2022/08/19 05:39:35;;;;;;;0.45;0.45;;;21.80;99.90;;;;;;4445404;32;20572;-68
2022/08/19 05:42:06;;;;;;;2.47;1.23;;;21.70;99.90;;;;;;4445050;32;20143;-68
2022/08/19 05:44:34;;;;;;;4.37;1.10;;;21.80;99.90;;;;;;4447432;32;20057;-68
2022/08/19 05:47:02;;;;;;;0.62;0.62;;;21.70;99.90;;;;;;4447371;32;20093;-68
2022/08/19 05:49:29;;;;;;;2.83;0.93;;;21.70;99.90;;;;;;4447008;32;20128;-68
2022/08/19 05:51:55;;;;;;;0.35;0.35;;;21.70;99.90;;;;;;4448300;32;20085;-68
2022/08/19 05:54:22;;;;;;;0.40;0.40;;;21.70;99.90;;;;;;4446116;32;20587;-68
2022/08/19 05:56:49;;;;;;;3.85;1.25;;;21.80;99.90;;;;;;4445638;32;20064;-68
2022/08/19 05:59:15;;;;;;;1.35;1.08;;;21.80;99.90;;;;;;4440313;32;20081;-68
2022/08/19 06:01:45;;;;;;;5.32;0.82;;;21.80;99.90;;;;;;4446088;32;20146;-68
2022/08/19 06:04:10;;;;;;;0.50;0.50;;;21.70;99.90;;;;;;4445203;32;20546;-68
2022/08/19 06:06:36;;;;;;;2.08;1.35;;;21.70;99.90;;;;;;4443715;32;20130;-68
2022/08/19 06:09:03;;;;;;;0.62;0.62;;;21.80;99.90;;;;;;4445267;32;20084;-68
2022/08/19 06:11:35;;;;;;;0.88;0.73;;;21.80;99.90;;;;;;4444932;32;20398;-68
2022/08/19 06:14:08;;;;;;;1.45;1.02;;;21.80;99.90;;;;;;4448396;32;20086;-68
2022/08/19 06:16:36;;;;;;;0.80;0.60;;;21.90;99.90;;;;;;4442164;32;20544;-69
2022/08/19 06:19:06;;;;;;;7.05;1.85;;;22.00;99.90;;;;;;4445592;32;20136;-69
2022/08/19 06:21:32;;;;;;;0.65;0.65;;;22.00;99.90;;;;;;4446779;32;20088;-68
2022/08/19 06:23:59;;;;;;;0.80;0.75;;;22.00;99.90;;;;;;4439828;32;20500;-70
2022/08/19 06:26:24;;;;;;;1.92;0.62;;;22.00;99.90;;;;;;4440438;32;20455;-70
2022/08/19 06:28:50;;;;;;;1.40;0.82;;;22.00;99.90;;;;;;4448431;32;20081;-69
2022/08/19 06:31:20;;;;;;;1.08;0.77;;;21.90;99.90;;;;;;4443791;32;20082;-70
2022/08/19 06:33:46;;;;;;;0.68;0.37;;;22.00;99.90;;;;;;4443901;32;20085;-69
2022/08/19 06:36:21;;;;;;;4.07;0.80;;;22.00;99.90;;;;;;4445252;32;20061;-69
2022/08/19 06:38:47;;;;;;;0.55;0.52;;;22.10;99.90;;;;;;4443499;32;20116;-69
2022/08/19 06:41:13;;;;;;;1.25;0.75;;;22.10;99.90;;;;;;4442525;32;20123;-69
2022/08/19 06:43:41;;;;;;;1.55;0.70;;;22.10;99.90;;;;;;4442710;32;20606;-69
2022/08/19 06:46:11;;;;;;;0.85;0.82;;;22.20;99.90;;;;;;4441361;32;20081;-70
2022/08/19 06:48:37;;;;;;;0.40;0.40;;;22.30;99.90;;;;;;4440930;32;20742;-69
2022/08/19 06:51:05;;;;;;;0.40;0.40;;;22.30;99.90;;;;;;4442144;32;20100;-69
2022/08/19 06:53:30;;;;;;;0.60;0.60;;;22.20;99.90;;;;;;4440283;32;20500;-70
2022/08/19 06:56:00;;;;;;;1.75;0.70;;;22.20;99.90;;;;;;4443701;32;20097;-69
2022/08/19 06:58:25;;;;;;;1.67;0.95;;;22.20;99.90;;;;;;4442439;32;20084;-68
2022/08/19 07:00:51;;;;;;;0.50;0.50;;;22.30;99.90;;;;;;4436790;32;20130;-68
2022/08/19 07:03:17;;;;;;;2.25;0.85;;;22.30;99.90;;;;;;4438730;32;20076;-68
2022/08/19 07:05:43;;;;;;;1.52;1.15;;;22.30;99.90;;;;;;4438618;32;20178;-68
2022/08/19 07:08:09;;;;;;;5.95;1.02;;;22.30;99.90;;;;;;4441467;32;20165;-68
2022/08/19 07:10:36;;;;;;;4.12;1.05;;;22.30;99.90;;;;;;4441286;32;20084;-68
2022/08/19 07:13:02;;;;;;;0.45;0.45;;;22.40;99.90;;;;;;4442983;32;20082;-67
2022/08/19 07:15:28;;;;;;;0.73;0.62;;;22.40;99.90;;;;;;4443286;32;20093;-67
2022/08/19 07:17:53;;;;;;;0.88;0.77;;;22.50;99.90;;;;;;4446345;32;20423;-67
2022/08/19 07:20:19;;;;;;;3.30;1.00;;;22.50;99.90;;;;;;4443286;32;20088;-67
2022/08/19 07:22:45;;;;;;;2.10;0.88;;;22.50;99.90;;;;;;4447086;32;20573;-67
2022/08/19 07:25:12;;;;;;;1.48;0.70;;;22.50;99.90;;;;;;4435586;32;20096;-67
2022/08/19 07:27:38;;;;;;;0.73;0.60;;;22.50;99.90;;;;;;4442195;32;20561;-67
2022/08/19 07:30:04;;;;;;;1.58;0.80;;;22.50;99.90;;;;;;4437815;32;20096;-67
2022/08/19 07:32:30;;;;;;;0.70;0.60;;;22.60;99.90;;;;;;4436111;32;20093;-67
2022/08/19 07:34:56;;;;;;;7.72;1.42;;;22.70;99.90;;;;;;4439855;32;20081;-67
2022/08/19 07:37:22;;;;;;;1.95;0.82;;;22.70;99.90;;;;;;4439831;32;20092;-68
2022/08/19 07:39:48;;;;;;;0.47;0.45;;;22.70;99.90;;;;;;4441676;32;20463;-68
2022/08/19 07:42:14;;;;;;;0.75;0.70;;;22.70;99.90;;;;;;4444406;32;20077;-69
2022/08/19 07:44:40;;;;;;;4.43;1.50;;;22.70;99.90;;;;;;4436565;32;20069;-68
2022/08/19 07:47:06;;;;;;;1.95;1.02;;;22.80;99.90;;;;;;4444110;32;20081;-68
2022/08/19 07:49:32;;;;;;;1.08;0.98;;;22.90;99.90;;;;;;4441650;32;20072;-68
2022/08/19 07:52:03;;;;;;;1.80;0.75;;;22.80;99.90;;;;;;4442628;32;20072;-68
2022/08/19 07:54:34;;;;;;;2.92;0.62;;;22.90;99.90;;;;;;4442590;32;20860;-69
2022/08/19 07:56:59;;;;;;;;;;;22.90;99.90;;;;;;4438559;32;20092;-68
2022/08/19 07:59:25;;;;;;;13.85;0.77;;;22.90;99.90;;;;;;4437538;32;20349;-69
2022/08/19 08:01:52;;;;;;;8.05;0.90;;;22.90;99.90;;;;;;4434041;32;20727;-69
2022/08/19 08:09:21;;;;;;;1.35;0.68;;;22.70;99.90;;;;;;4432706;32;20089;-67
2022/08/19 08:09:52;;;;;;;0.93;0.65;;;22.70;99.90;;;;;;4433409;32;20088;-69
2022/08/19 08:12:24;;;;;;;1.00;0.90;;;22.80;99.90;;;;;;4437680;32;20501;-67
2022/08/19 08:14:52;;;;;;;3.08;1.55;;;22.80;99.90;;;;;;4436361;32;20060;-66
2022/08/19 08:17:19;;;;;;;3.97;1.48;;;22.90;99.90;;;;;;4436873;32;20229;-69
2022/08/19 08:19:45;;;;;;;0.70;0.70;;;22.90;99.90;;;;;;4436473;32;20085;-67
2022/08/19 08:23:22;;;;;;;0.60;0.60;;;22.90;99.90;;;;;;4431779;32;20418;-69
2022/08/19 08:25:07;;;;;;;3.83;1.10;;;22.90;99.90;;;;;;4425106;32;20085;-68
2022/08/19 08:27:36;;;;;;;1.20;1.08;;;22.90;99.90;;;;;;4431831;32;20866;-68
2022/08/19 08:30:04;;;;;;;0.93;0.73;;;22.90;99.90;;;;;;4436920;32;20085;-67
2022/08/19 08:32:30;;;;;;;1.73;0.90;;;22.90;99.90;;;;;;4429717;32;83004;-68
2022/08/19 08:34:55;;;;;;;1.05;0.68;;;22.90;99.90;;;;;;4429985;32;20053;-68
2022/08/19 08:37:21;;;;;;;1.40;1.30;;;22.90;99.90;;;;;;4435266;32;20166;-66
2022/08/19 08:39:47;;;;;;;0.40;0.40;;;23.00;99.90;;;;;;4436451;32;20651;-67
2022/08/19 08:42:27;;;;;;;0.43;0.43;;;22.90;99.90;;;;;;4438465;32;20167;-67
2022/08/19 08:45:02;;;;;;;1.50;0.77;;;23.00;99.90;;;;;;4433766;32;20072;-68
2022/08/19 08:47:34;;;;;;;1.95;0.65;;;22.90;99.90;;;;;;4434106;32;20077;-70
2022/08/19 08:50:08;;;;;;;0.62;0.62;;;22.90;99.90;;;;;;4437081;32;20064;-68
2022/08/19 08:52:37;;;;;;;0.70;0.55;;;22.90;99.90;;;;;;4428849;32;20514;-67
2022/08/19 08:55:09;;;;;;;0.90;0.75;;;22.90;99.90;;;;;;4416519;32;20093;-68
2022/08/19 08:57:48;;;;;;;1.85;0.73;;;22.90;99.90;;;;;;4435016;32;20069;-69
2022/08/19 09:00:20;;;;;;;1.12;0.95;;;22.80;99.90;;;;;;4417334;32;20085;-68
2022/08/19 09:02:46;;;;;;;0.70;0.70;;;22.80;99.90;;;;;;4418815;32;20900;-70
2022/08/19 09:05:12;;;;;;;0.60;0.60;;;22.80;99.90;;;;;;4416968;32;20135;-70
2022/08/19 09:07:52;;;;;;;1.33;0.98;;;22.80;99.90;;;;;;4423604;32;20081;-69
2022/08/19 09:10:40;;;;;;;0.43;0.43;;;22.80;99.90;;;;;;4425738;32;20139;-69
2022/08/19 09:13:31;;;;;;;5.53;1.70;;;22.80;99.90;;;;;;4430287;32;20097;-69
2022/08/19 09:16:00;;;;;;;;;;;22.80;99.90;;;;;;4428308;32;20073;-69
2022/08/19 09:18:37;;;;;;;2.50;1.20;;;22.80;99.90;;;;;;4430913;32;19956;-69
2022/08/19 09:21:03;;;;;;;2.00;1.23;;;22.80;99.90;;;;;;4429131;32;20543;-69
2022/08/19 09:23:28;;;;;;;1.05;0.90;;;22.90;99.90;;;;;;4437709;32;20066;-71
2022/08/19 09:25:54;;;;;;;1.42;0.73;;;22.90;99.90;;;;;;4429645;32;20114;-69
2022/08/19 09:28:19;;;;;;;0.40;0.40;;;22.90;99.90;;;;;;4439492;32;20091;-69
2022/08/19 09:30:45;;;;;;;0.70;0.70;;;22.80;99.90;;;;;;4428538;32;20883;-69
2022/08/19 09:33:12;;;;;;;0.73;0.73;;;23.00;99.90;;;;;;4432589;32;20089;-70
2022/08/19 09:35:38;;;;;;;0.52;0.52;;;23.00;99.90;;;;;;4432784;32;20108;-70
2022/08/19 09:38:04;;;;;;;0.50;0.50;;;22.90;99.90;;;;;;4432561;32;20065;-69
2022/08/19 09:40:31;;;;;;;2.30;0.95;;;22.90;99.90;;;;;;4435910;32;20544;-69
2022/08/19 09:42:57;;;;;;;0.75;0.62;;;23.00;99.90;;;;;;4433326;32;20069;-68
2022/08/19 09:45:23;;;;;;;1.50;1.05;;;23.10;99.90;;;;;;4425381;32;20092;-70
2022/08/19 09:47:51;;;;;;;1.55;0.60;;;23.10;99.90;;;;;;4419309;32;20623;-69
2022/08/19 09:50:18;;;;;;;2.50;1.23;;;23.10;99.90;;;;;;4433757;32;20081;-70
2022/08/19 09:52:44;;;;;;;1.70;0.82;;;23.20;99.90;;;;;;4438894;32;20077;-69
2022/08/19 09:55:10;;;;;;;1.20;0.55;;;23.20;99.90;;;;;;4435430;32;20077;-72
2022/08/19 09:57:37;;;;;;;0.30;0.30;;;23.10;99.90;;;;;;4422403;32;20147;-69
2022/08/19 10:00:05;;;;;;;0.50;0.47;;;23.20;99.90;;;;;;4421168;32;20485;-70
2022/08/19 10:02:31;;;;;;;0.80;0.60;;;23.20;99.90;;;;;;4421973;32;22047;-69
2022/08/19 10:05:56;;;;;;;1.52;0.82;;;23.20;99.90;;;;;;4422670;32;20077;-68
2022/08/19 10:07:42;;;;;;;0.40;0.40;;;23.20;99.90;;;;;;4425750;32;20065;-68
2022/08/19 10:10:09;;;;;;;2.05;0.80;;;23.20;99.90;;;;;;4439274;32;20090;-69
2022/08/19 10:12:35;;;;;;;2.05;1.02;;;23.10;99.90;;;;;;4437700;32;20450;-68
2022/08/19 10:15:01;;;;;;;2.17;1.23;;;23.10;99.90;;;;;;4434580;32;20101;-69
2022/08/19 10:17:27;;;;;;;0.52;0.52;;;23.10;99.90;;;;;;4440150;32;20552;-69
2022/08/19 10:19:53;;;;;;;0.40;0.40;;;23.20;99.90;;;;;;4439182;32;20065;-70
2022/08/19 10:22:19;;;;;;;0.32;0.25;;;23.30;99.90;;;;;;4436464;32;20302;-69
2022/08/19 10:24:46;;;;;;;0.80;0.60;;;23.40;99.90;;;;;;4439761;32;20062;-69
2022/08/19 10:27:13;;;;;;;0.80;0.55;;;23.50;99.90;;;;;;4439272;32;20084;-69
2022/08/19 10:29:39;;;;;;;1.83;0.77;;;23.50;99.90;;;;;;4435859;32;20077;-69
2022/08/19 10:32:08;;;;;;;1.83;0.90;;;23.60;99.90;;;;;;4431055;32;20100;-69
2022/08/19 10:34:35;;;;;;;0.68;0.65;;;23.80;99.90;;;;;;4429061;32;20081;-69
2022/08/19 10:37:02;;;;;;;0.70;0.70;;;23.70;99.90;;;;;;4430038;32;20064;-69
2022/08/19 10:39:30;;;;;;;2.15;1.15;;;23.80;99.90;;;;;;4427226;32;20741;-69
2022/08/19 10:41:56;;;;;;;7.68;1.52;;;23.80;99.90;;;;;;4431766;32;20357;-70
2022/08/19 10:44:23;;;;;;;0.73;0.45;;;23.80;99.90;;;;;;4423065;32;20096;-68
2022/08/19 10:46:49;;;;;;;0.60;0.47;;;23.80;99.90;;;;;;4427880;32;20603;-68
2022/08/19 10:49:15;;;;;;;0.50;0.50;;;23.80;99.90;;;;;;4441938;32;20097;-68
2022/08/19 10:52:42;;;;;;;0.40;0.40;;;23.70;99.90;;;;;;4443235;32;20080;-68
2022/08/19 10:56:50;;;;;;;0.52;0.52;;;23.70;99.90;;;;;;4426933;32;20791;-68
2022/08/19 10:57:12;;;;;;;0.70;0.65;;;23.70;99.90;;;;;;4422423;32;20085;-68
2022/08/19 10:59:38;;;;;;;0.90;0.65;;;23.60;99.90;;;;;;4431011;32;20326;-71
2022/08/19 11:02:07;;;;;;;2.60;1.35;;;23.60;99.90;;;;;;4428685;32;20597;-69
2022/08/19 11:04:33;;;;;;;1.50;0.55;;;23.50;99.90;;;;;;4428169;32;20439;-69
2022/08/19 11:06:58;;;;;;;0.35;0.35;;;23.60;99.90;;;;;;4429119;32;20080;-70
2022/08/19 11:09:27;;;;;;;0.70;0.70;;;23.60;99.90;;;;;;4426940;32;20084;-69
2022/08/19 11:11:53;;;;;;;1.48;0.93;;;23.40;99.90;;;;;;4437439;32;20154;-71
2022/08/19 11:14:21;;;;;;;0.57;0.50;;;23.40;99.90;;;;;;4436462;32;20383;-71
2022/08/19 11:16:48;;;;;;;3.33;1.50;;;23.40;99.90;;;;;;4432803;32;20072;-70
2022/08/19 11:19:16;;;;;;;0.73;0.73;;;23.30;99.90;;;;;;4445832;32;20069;-70
2022/08/19 11:21:44;;;;;;;1.12;0.60;;;23.30;99.90;;;;;;4440293;32;21059;-70
2022/08/19 11:24:12;;;;;;;0.90;0.68;;;23.30;99.90;;;;;;4437712;32;20074;-70
2022/08/19 11:26:41;;;;;;;0.52;0.52;;;23.30;99.90;;;;;;4438749;32;20590;-71
2022/08/19 11:29:12;;;;;;;4.97;0.95;;;23.40;99.90;;;;;;4437197;32;20596;-70
2022/08/19 11:31:41;;;;;;;0.70;0.60;;;23.40;99.90;;;;;;4437340;32;20834;-70
2022/08/19 11:34:09;;;;;;;0.57;0.57;;;23.40;99.90;;;;;;4438084;32;20085;-70
2022/08/19 11:36:38;;;;;;;0.43;0.40;;;23.30;99.90;;;;;;4439040;32;20425;-70
2022/08/19 11:39:06;;;;;;;1.92;0.90;;;23.30;99.90;;;;;;4441457;32;20105;-69
2022/08/19 11:41:31;;;;;;;0.35;0.35;;;23.40;99.90;;;;;;4441601;32;20069;-70
2022/08/19 11:43:57;;;;;;;1.45;0.73;;;23.40;99.90;;;;;;4440630;32;20176;-70
2022/08/19 11:46:25;;;;;;;4.18;0.73;;;23.40;99.90;;;;;;4441241;32;20192;-70
2022/08/19 11:48:51;;;;;;;0.30;0.30;;;23.30;99.90;;;;;;4440556;32;20188;-70
2022/08/19 11:51:21;;;;;;;0.60;0.50;;;23.40;99.90;;;;;;4441568;32;20197;-70
2022/08/19 11:53:47;;;;;;;4.03;0.60;;;23.60;99.90;;;;;;4437342;32;20169;-70
2022/08/19 11:56:13;;;;;;;2.10;0.70;;;23.60;99.90;;;;;;4435048;32;20731;-70
2022/08/19 11:58:39;;;;;;;0.68;0.60;;;23.60;99.90;;;;;;4435051;32;20233;-70
2022/08/19 12:01:07;;;;;;;0.70;0.70;;;23.50;99.90;;;;;;4429334;32;20109;-70
2022/08/19 12:03:33;;;;;;;0.60;0.60;;;23.60;99.90;;;;;;4430801;32;20085;-69
2022/08/19 12:06:04;;;;;;;1.27;0.90;;;23.70;99.90;;;;;;4431464;32;21574;-70
2022/08/19 12:08:30;;;;;;;0.40;0.40;;;23.60;99.90;;;;;;4438752;32;20114;-71
2022/08/19 12:10:56;;;;;;;16.40;0.50;;;23.60;99.90;;;;;;4433471;32;20199;-69
2022/08/19 12:13:22;;;;;;;0.20;0.20;;;23.50;99.90;;;;;;4432916;32;20097;-70
2022/08/19 12:15:48;;;;;;;2.33;0.62;;;23.50;99.90;;;;;;4431898;32;20092;-70
2022/08/19 12:18:13;;;;;;;0.60;0.60;;;23.40;99.90;;;;;;4432841;32;20147;-71
2022/08/19 12:20:42;;;;;;;0.70;0.45;;;23.40;99.90;;;;;;4433465;32;20069;-69
2022/08/19 12:23:09;;;;;;;1.12;0.50;;;23.40;99.90;;;;;;4436562;32;20689;-70
2022/08/19 12:25:37;;;;;;;0.57;0.52;;;23.50;99.90;;;;;;4433778;32;20572;-70
2022/08/19 12:28:03;;;;;;;0.40;0.40;;;23.50;99.90;;;;;;4432054;32;20499;-70
2022/08/19 12:30:29;;;;;;;0.80;0.52;;;23.50;99.90;;;;;;4432142;32;20069;-70
2022/08/19 12:32:55;;;;;;;5.37;0.82;;;23.50;99.90;;;;;;4430138;32;20101;-71
2022/08/19 12:35:20;;;;;;;0.50;0.50;;;23.50;99.90;;;;;;4431784;32;20129;-70
2022/08/19 12:37:47;;;;;;;0.65;0.60;;;23.40;99.90;;;;;;4428061;32;20206;-71
2022/08/19 12:40:14;;;;;;;0.43;0.43;;;23.40;99.90;;;;;;4433941;32;20108;-71
2022/08/19 12:42:42;;;;;;;0.37;0.37;;;23.40;99.90;;;;;;4435664;32;20085;-69
2022/08/19 12:45:09;;;;;;;0.82;0.77;;;23.40;99.90;;;;;;4429728;32;20097;-71
2022/08/19 12:47:35;;;;;;;0.30;0.30;;;23.50;99.90;;;;;;4437694;32;20152;-71
2022/08/19 12:50:01;;;;;;;1.55;0.68;;;23.50;99.90;;;;;;4438833;32;20072;-71
2022/08/19 12:52:26;;;;;;;1.23;0.82;;;23.40;99.90;;;;;;4435146;32;20460;-71
2022/08/19 12:54:55;;;;;;;0.52;0.52;;;23.50;99.90;;;;;;4439565;32;20586;-70